Terminal Aerodrome Forecast
Issued by NWS Wichita, KS

Home | Current Version | Previous Version | Text Only | Print | Product List | Glossary On
Versions: 1 2 3 4 5 6 7 8 9 10 11 12 13 14 15 16
000
FTUS43 KICT 301731 CCA
TAFICT
TAF COR
KICT 301731Z 3018/3118 19016G23KT P6SM SKC
     FM310000 17008KT P6SM SCT250
     FM311000 VRB03KT P6SM FEW020 SCT250
      TEMPO 3111/3114 5SM BR=

USA.gov is the U.S. government's official web portal to all federal, state and local government web resources and services.